Time;durP1;ratioP1;P1;durP2;ratioP2;P2;SDS_P1;SDS_P2;PMS_P1;PMS_P2;Temp;Humidity;BMP_temperature;BMP_pressure;BME280_temperature;BME280_humidity;BME280_pressure;Samples;Min_cycle;Max_cycle;Signal;HPM_P1;HPM_P2
2023/03/22 00:00:35;;;;;;;1999.90;999.90;;;;;;;9.74;100.00;95184.03;5086208;28;20174;-57
2023/03/22 00:03:01;;;;;;;1999.90;999.90;;;;;;;9.74;100.00;95186.78;5086249;28;20176;-57
2023/03/22 00:05:29;;;;;;;1999.90;999.90;;;;;;;9.68;100.00;95182.91;5086120;28;20172;-57
2023/03/22 00:07:56;;;;;;;1999.90;999.90;;;;;;;9.62;100.00;95181.03;5086080;28;20198;-58
2023/03/22 00:10:27;;;;;;;1999.90;999.90;;;;;;;9.56;100.00;95172.50;5086537;28;20222;-57
2023/03/22 00:12:54;;;;;;;1999.90;999.90;;;;;;;9.51;100.00;95175.63;5086618;28;20169;-57
2023/03/22 00:15:19;;;;;;;1999.90;999.90;;;;;;;9.39;100.00;95172.63;5086354;28;20170;-57
2023/03/22 00:17:45;;;;;;;1999.90;999.90;;;;;;;9.33;100.00;95161.38;5085742;28;20180;-58
2023/03/22 00:20:10;;;;;;;1999.90;999.90;;;;;;;9.32;100.00;95159.84;5085445;28;20189;-58
2023/03/22 00:22:37;;;;;;;1999.90;999.90;;;;;;;9.23;100.00;95154.06;5086316;28;20174;-58
2023/03/22 00:25:04;;;;;;;1999.90;999.90;;;;;;;9.21;100.00;95150.16;5086257;28;20232;-57
2023/03/22 00:27:29;;;;;;;1999.90;999.90;;;;;;;9.19;100.00;95147.88;5086017;28;20170;-57
2023/03/22 00:29:55;;;;;;;1999.90;999.90;;;;;;;9.21;100.00;95140.06;5085945;28;20194;-57
2023/03/22 00:32:20;;;;;;;1999.90;999.90;;;;;;;9.24;100.00;95142.00;5085607;28;20232;-57
2023/03/22 00:34:46;;;;;;;1999.90;999.90;;;;;;;9.22;100.00;95136.16;5085997;28;20165;-56
2023/03/22 00:37:11;;;;;;;1999.90;999.90;;;;;;;9.29;100.00;95147.00;5085602;28;20381;-57
2023/03/22 00:39:36;;;;;;;1999.90;999.90;;;;;;;9.30;100.00;95142.34;5085537;28;20353;-59
2023/03/22 00:42:05;;;;;;;1999.90;999.90;;;;;;;9.30;100.00;95126.78;5085913;28;20236;-58
2023/03/22 00:44:31;;;;;;;1999.90;999.90;;;;;;;9.32;100.00;95121.69;5085929;28;20165;-57
2023/03/22 00:46:57;;;;;;;1999.90;999.90;;;;;;;9.27;100.00;95111.22;5085827;28;20200;-58
2023/03/22 00:49:24;;;;;;;1999.90;999.90;;;;;;;9.23;100.00;95110.47;5085109;28;20191;-58
2023/03/22 00:51:49;;;;;;;1999.90;999.90;;;;;;;9.24;100.00;95106.56;5085894;28;20167;-58
2023/03/22 00:54:16;;;;;;;1999.90;999.90;;;;;;;9.22;100.00;95103.47;5085126;28;20191;-57
2023/03/22 00:56:44;;;;;;;1999.90;999.90;;;;;;;9.31;100.00;95105.72;5085090;28;20195;-58
2023/03/22 00:59:10;;;;;;;1999.90;999.90;;;;;;;9.39;100.00;95105.28;5084992;28;20170;-58
2023/03/22 01:01:35;;;;;;;1999.90;999.90;;;;;;;9.48;100.00;95110.28;5085028;28;20174;-57
2023/03/22 01:04:01;;;;;;;1999.90;999.90;;;;;;;9.53;100.00;95101.66;5085134;28;20171;-58
2023/03/22 01:06:27;;;;;;;1999.90;999.90;;;;;;;9.54;100.00;95109.44;5085405;28;20170;-58
2023/03/22 01:08:53;;;;;;;1999.90;999.90;;;;;;;9.58;100.00;95110.16;5085355;28;20220;-58
2023/03/22 01:11:19;;;;;;;1999.90;999.90;;;;;;;9.62;100.00;95116.34;5084823;28;20500;-58
2023/03/22 01:13:46;;;;;;;1999.90;999.90;;;;;;;9.70;100.00;95117.84;5085209;28;20216;-58
2023/03/22 01:16:12;;;;;;;1999.90;999.90;;;;;;;9.74;100.00;95112.38;5085579;28;20318;-58
2023/03/22 01:18:37;;;;;;;1999.90;999.90;;;;;;;9.76;100.00;95121.69;5084923;28;20176;-59
2023/03/22 01:21:03;;;;;;;1999.90;999.90;;;;;;;9.73;100.00;95117.03;5084601;28;20358;-58
2023/03/22 01:23:28;;;;;;;1999.90;999.90;;;;;;;9.73;100.00;95119.75;5084816;28;20162;-58
2023/03/22 01:25:54;;;;;;;1999.90;999.90;;;;;;;9.82;100.00;95119.28;5085308;28;20171;-57
2023/03/22 01:28:19;;;;;;;1999.90;999.90;;;;;;;9.83;100.00;95115.38;5084403;28;20216;-57
2023/03/22 01:30:44;;;;;;;1999.90;999.90;;;;;;;9.76;100.00;95110.78;5084111;28;20197;-58
2023/03/22 01:33:10;;;;;;;1999.90;999.90;;;;;;;9.73;100.00;95108.84;5084949;28;20165;-57
2023/03/22 01:35:36;;;;;;;1999.90;999.90;;;;;;;9.71;100.00;95096.81;5084381;28;20173;-58
2023/03/22 01:38:01;;;;;;;1999.90;999.90;;;;;;;9.70;100.00;95101.47;5084475;28;20192;-58
2023/03/22 01:40:27;;;;;;;1999.90;999.90;;;;;;;9.70;100.00;95101.47;5084275;28;20166;-58
2023/03/22 01:42:54;;;;;;;1999.90;999.90;;;;;;;9.69;100.00;95096.47;5084434;28;20166;-58
2023/03/22 01:45:38;;;;;;;1999.90;999.90;;;;;;;9.66;100.00;95091.81;5084251;28;20167;-58
2023/03/22 01:48:13;;;;;;;1999.90;999.90;;;;;;;9.67;100.00;95088.69;5084064;28;20169;-57
2023/03/22 01:50:41;;;;;;;1999.90;999.90;;;;;;;9.63;100.00;95079.75;5084573;28;20493;-58
2023/03/22 01:53:09;;;;;;;1999.90;999.90;;;;;;;9.63;100.00;95085.22;5084546;28;20171;-58
2023/03/22 01:55:36;;;;;;;1999.90;999.90;;;;;;;9.61;100.00;95082.09;5083973;28;20381;-58
2023/03/22 01:58:03;;;;;;;1999.90;999.90;;;;;;;9.63;100.00;95090.66;5083958;28;20174;-58
2023/03/22 02:00:28;;;;;;;1999.90;999.90;;;;;;;9.66;100.00;95098.00;5084079;28;20178;-58
2023/03/22 02:02:54;;;;;;;1999.90;999.90;;;;;;;9.61;100.00;95087.56;5084101;28;20169;-58
2023/03/22 02:05:23;;;;;;;1999.90;999.90;;;;;;;9.59;100.00;95089.91;5084046;28;20170;-57
2023/03/22 02:07:49;;;;;;;1999.90;999.90;;;;;;;9.58;100.00;95085.63;5083920;28;20170;-58
2023/03/22 02:10:22;;;;;;;1999.90;999.90;;;;;;;9.54;100.00;95082.16;5083869;28;20198;-57
2023/03/22 02:13:01;;;;;;;1999.90;999.90;;;;;;;9.47;100.00;95076.78;5083842;28;20178;-58
2023/03/22 02:15:41;;;;;;;1999.90;999.90;;;;;;;9.42;100.00;95085.41;5083986;28;20158;-58
2023/03/22 02:18:37;;;;;;;1999.90;999.90;;;;;;;9.36;100.00;95084.28;5084599;28;20162;-58
2023/03/22 02:21:32;;;;;;;1999.90;999.90;;;;;;;9.31;100.00;95082.00;5084561;28;20167;-58
2023/03/22 02:24:22;;;;;;;1999.90;999.90;;;;;;;9.23;100.00;95083.25;5081325;28;20200;-58
2023/03/22 02:27:15;;;;;;;1999.90;999.90;;;;;;;9.16;100.00;95074.34;5084245;28;20158;-57
2023/03/22 02:30:14;;;;;;;1999.90;999.90;;;;;;;9.07;100.00;95071.31;5077149;28;20214;-58
2023/03/22 02:32:48;;;;;;;1999.90;999.90;;;;;;;8.97;100.00;95062.03;5084489;28;20192;-59
2023/03/22 02:35:29;;;;;;;1999.90;999.90;;;;;;;8.89;100.00;95057.06;5083543;28;20173;-58
2023/03/22 02:38:09;;;;;;;1999.90;999.90;;;;;;;8.87;100.00;95060.16;5083953;28;20172;-58
2023/03/22 02:41:01;;;;;;;1999.90;999.90;;;;;;;8.82;100.00;95052.41;5084139;28;20165;-58
2023/03/22 02:43:33;;;;;;;1999.90;999.90;;;;;;;8.81;100.00;95053.59;5087352;28;20173;-58
2023/03/22 02:46:16;;;;;;;1999.90;999.90;;;;;;;8.74;100.00;95053.63;5088126;28;20193;-58
2023/03/22 02:49:11;;;;;;;1999.90;999.90;;;;;;;8.77;100.00;95050.13;5087924;28;20207;-58
2023/03/22 02:51:43;;;;;;;1999.90;999.90;;;;;;;8.73;100.00;95049.38;5088000;28;20197;-58
2023/03/22 02:54:14;;;;;;;1999.90;999.90;;;;;;;8.72;100.00;95053.28;5087967;28;20181;-58
2023/03/22 02:56:43;;;;;;;1999.90;999.90;;;;;;;8.66;100.00;95054.88;5088017;28;20186;-58
2023/03/22 02:59:10;;;;;;;1999.90;999.90;;;;;;;8.66;100.00;95054.06;5088024;28;20165;-58
2023/03/22 03:01:44;;;;;;;1999.90;999.90;;;;;;;8.58;100.00;95058.81;5087802;28;20172;-58
2023/03/22 03:04:14;;;;;;;1999.90;999.90;;;;;;;8.59;100.00;95054.13;5087814;28;20166;-58
2023/03/22 03:06:46;;;;;;;1999.90;999.90;;;;;;;8.56;100.00;95052.22;5088057;28;20207;-59
2023/03/22 03:09:18;;;;;;;1999.90;999.90;;;;;;;8.49;100.00;95055.75;5087502;28;20512;-58
2023/03/22 03:11:48;;;;;;;1999.90;999.90;;;;;;;8.45;100.00;95055.00;5087734;28;20166;-58
2023/03/22 03:14:24;;;;;;;1999.90;999.90;;;;;;;8.39;100.00;95051.16;5087681;28;20163;-58
2023/03/22 03:17:25;;;;;;;1999.90;999.90;;;;;;;8.30;100.00;95053.53;5087076;28;20169;-58
2023/03/22 03:20:16;;;;;;;1999.90;999.90;;;;;;;8.25;100.00;95051.22;5063682;28;20185;-58
2023/03/22 03:23:03;;;;;;;1999.90;999.90;;;;;;;8.21;100.00;95044.22;5087411;28;20203;-58
2023/03/22 03:26:07;;;;;;;1999.90;999.90;;;;;;;8.16;100.00;95048.13;5087367;28;20166;-57
2023/03/22 03:28:45;;;;;;;1999.90;999.90;;;;;;;8.13;100.00;95043.50;5053952;28;20285;-57
2023/03/22 03:31:35;;;;;;;1999.90;999.90;;;;;;;8.08;100.00;95046.59;5087250;28;20197;-57
2023/03/22 03:34:23;;;;;;;1999.90;999.90;;;;;;;8.01;100.00;95049.34;5087572;28;20171;-58
2023/03/22 03:36:57;;;;;;;1999.90;999.90;;;;;;;7.97;100.00;95029.56;5086721;28;20168;-58
2023/03/22 03:39:27;;;;;;;1999.90;999.90;;;;;;;7.94;100.00;95041.22;5086871;28;20228;-58
2023/03/22 03:41:54;;;;;;;1999.90;999.90;;;;;;;7.94;100.00;95035.78;5087009;28;20186;-57
2023/03/22 03:44:20;;;;;;;1999.90;999.90;;;;;;;7.91;100.00;95031.16;5086496;28;20169;-58
2023/03/22 03:46:47;;;;;;;1999.90;999.90;;;;;;;7.85;100.00;95021.84;5086486;28;20183;-58
2023/03/22 03:49:15;;;;;;;1999.90;999.90;;;;;;;7.82;100.00;95022.63;5086808;28;20168;-58
2023/03/22 03:51:53;;;;;;;1999.90;999.90;;;;;;;7.78;100.00;95016.44;5086350;28;20180;-58
2023/03/22 03:54:19;;;;;;;1999.90;999.90;;;;;;;7.79;100.00;95003.63;5085533;28;20258;-57
2023/03/22 03:56:46;;;;;;;1999.90;999.90;;;;;;;7.73;100.00;95002.50;5086698;28;20170;-57
2023/03/22 03:59:14;;;;;;;1999.90;999.90;;;;;;;7.69;100.00;95002.50;5086195;28;20188;-58
2023/03/22 04:01:48;;;;;;;1999.90;999.90;;;;;;;7.67;100.00;94993.97;5086717;28;20168;-58
2023/03/22 04:04:14;;;;;;;1999.90;999.90;;;;;;;7.64;100.00;94999.41;5086218;28;20168;-58
2023/03/22 04:06:40;;;;;;;1999.90;999.90;;;;;;;7.61;100.00;94983.91;5086150;28;20240;-57
2023/03/22 04:09:05;;;;;;;1999.90;999.90;;;;;;;7.56;100.00;94992.44;5086039;28;20173;-58
2023/03/22 04:11:31;;;;;;;1999.90;999.90;;;;;;;7.49;100.00;94979.66;5086484;28;20195;-57
2023/03/22 04:13:56;;;;;;;1999.90;999.90;;;;;;;7.44;100.00;94969.22;5086425;28;20236;-58
2023/03/22 04:16:23;;;;;;;1999.90;999.90;;;;;;;7.41;100.00;94969.22;5086409;28;20169;-58
2023/03/22 04:18:49;;;;;;;1999.90;999.90;;;;;;;7.38;100.00;94968.06;5086263;28;20392;-58
2023/03/22 04:21:15;;;;;;;1999.90;999.90;;;;;;;7.37;100.00;94949.44;5086406;28;20183;-57
2023/03/22 04:23:40;;;;;;;1999.90;999.90;;;;;;;7.33;100.00;94948.69;5086567;28;20180;-58
2023/03/22 04:26:06;;;;;;;1999.90;999.90;;;;;;;7.31;100.00;94943.63;5085747;28;20413;-58
2023/03/22 04:28:32;;;;;;;1999.90;999.90;;;;;;;7.26;100.00;94935.91;5085521;28;20291;-58
2023/03/22 04:30:58;;;;;;;1999.90;999.90;;;;;;;7.24;100.00;94927.38;5085581;28;20215;-58
2023/03/22 04:33:25;;;;;;;1999.90;999.90;;;;;;;7.23;100.00;94931.25;5086126;28;20196;-58
2023/03/22 04:35:55;;;;;;;1999.90;999.90;;;;;;;7.21;100.00;94922.72;5085534;28;20169;-58
2023/03/22 04:38:21;;;;;;;1999.90;999.90;;;;;;;7.21;100.00;94917.28;5086003;28;20176;-58
2023/03/22 04:40:46;;;;;;;1999.90;999.90;;;;;;;7.19;100.00;94895.19;5085842;28;20203;-58
2023/03/22 04:43:12;;;;;;;1999.90;999.90;;;;;;;7.19;100.00;94897.13;5085914;28;20169;-58
2023/03/22 04:45:38;;;;;;;1999.90;999.90;;;;;;;7.17;100.00;94883.94;5085350;28;20168;-57
2023/03/22 04:48:06;;;;;;;1999.90;999.90;;;;;;;7.17;100.00;94875.81;5085505;28;20176;-58
2023/03/22 04:50:32;;;;;;;1999.90;999.90;;;;;;;7.16;100.00;94866.13;5085156;28;20201;-58
2023/03/22 04:52:57;;;;;;;1999.90;999.90;;;;;;;7.16;100.00;94876.97;5085137;28;20196;-58
2023/03/22 04:55:22;;;;;;;1999.90;999.90;;;;;;;7.16;100.00;94851.75;5085152;28;20489;-58
2023/03/22 04:57:48;;;;;;;1999.90;999.90;;;;;;;7.14;100.00;94851.41;5084984;28;20169;-58
2023/03/22 05:00:14;;;;;;;1999.90;999.90;;;;;;;7.13;100.00;94833.56;5085590;28;20184;-57
2023/03/22 05:02:39;;;;;;;1999.90;999.90;;;;;;;7.14;100.00;94835.09;5084997;28;20247;-58
2023/03/22 05:05:05;;;;;;;1999.90;999.90;;;;;;;7.12;100.00;94842.84;5084745;28;20202;-57
2023/03/22 05:07:31;;;;;;;1999.90;999.90;;;;;;;7.10;100.00;94832.38;5084107;28;20252;-57
2023/03/22 05:09:57;;;;;;;1999.90;999.90;;;;;;;7.09;100.00;94828.13;5085394;28;20198;-58
2023/03/22 05:12:22;;;;;;;1999.90;999.90;;;;;;;7.08;100.00;94826.59;5085257;28;20199;-58
2023/03/22 05:14:47;;;;;;;1999.90;999.90;;;;;;;7.09;100.00;94817.28;5084931;28;20165;-58
2023/03/22 05:17:13;;;;;;;1999.90;999.90;;;;;;;7.10;100.00;94816.09;5085251;28;20176;-57
2023/03/22 05:19:38;;;;;;;1999.90;999.90;;;;;;;7.11;100.00;94820.38;5085200;28;20286;-57
2023/03/22 05:22:03;;;;;;;1999.90;999.90;;;;;;;7.17;100.00;94813.34;5085088;28;20172;-57
2023/03/22 05:24:29;;;;;;;1999.90;999.90;;;;;;;7.27;100.00;94820.69;5084529;28;20202;-58
2023/03/22 05:26:55;;;;;;;1999.90;999.90;;;;;;;7.50;100.00;94818.22;5084898;28;20173;-58
2023/03/22 05:29:21;;;;;;;1999.90;999.90;;;;;;;7.96;100.00;94809.75;5084084;28;20297;-58
2023/03/22 05:31:47;;;;;;;1999.90;999.90;;;;;;;8.44;100.00;94830.34;5084313;28;20180;-58
2023/03/22 05:34:12;;;;;;;1999.90;999.90;;;;;;;8.96;100.00;94861.69;5084260;28;20168;-58
2023/03/22 05:36:38;;;;;;;1999.90;999.90;;;;;;;9.21;100.00;94921.34;5084173;28;20170;-58
2023/03/22 05:39:03;;;;;;;1999.90;999.90;;;;;;;9.37;100.00;94963.19;5084772;28;20174;-58
2023/03/22 05:41:30;;;;;;;1999.90;999.90;;;;;;;9.90;100.00;94985.19;5084274;28;20172;-58
2023/03/22 05:43:56;;;;;;;1999.90;999.90;;;;;;;10.38;100.00;95008.75;5084057;28;20178;-58
2023/03/22 05:46:21;;;;;;;1999.90;999.90;;;;;;;10.78;100.00;95033.13;5084124;28;20179;-59
2023/03/22 05:48:47;;;;;;;1999.90;999.90;;;;;;;11.15;100.00;95063.00;5084622;28;20379;-58
2023/03/22 05:51:18;;;;;;;1999.90;999.90;;;;;;;11.43;100.00;95073.47;5084169;28;20211;-58
2023/03/22 05:53:45;;;;;;;1999.90;999.90;;;;;;;11.63;100.00;95076.28;5084385;28;20193;-59
2023/03/22 05:56:11;;;;;;;1999.90;999.90;;;;;;;11.31;100.00;95089.69;5083929;28;20173;-58
2023/03/22 05:58:38;;;;;;;1999.90;999.90;;;;;;;11.10;100.00;95084.53;5083927;28;20474;-58
2023/03/22 06:01:06;;;;;;;1999.90;999.90;;;;;;;11.17;100.00;95081.72;5084367;28;20169;-58
2023/03/22 06:03:32;;;;;;;1999.90;999.90;;;;;;;11.40;100.00;95089.94;5084342;28;20219;-57
2023/03/22 06:05:57;;;;;;;1999.90;999.90;;;;;;;11.67;100.00;95093.41;5084111;28;20177;-58
2023/03/22 06:08:23;;;;;;;1999.90;999.90;;;;;;;12.05;100.00;95092.72;5083875;28;20180;-58
2023/03/22 06:10:50;;;;;;;1999.90;999.90;;;;;;;12.31;100.00;95082.84;5083605;28;20201;-58
2023/03/22 06:13:19;;;;;;;1999.90;999.90;;;;;;;12.72;100.00;95092.13;5084334;28;20200;-58
2023/03/22 06:15:45;;;;;;;1999.90;999.90;;;;;;;13.28;100.00;95085.41;5084527;28;20197;-59
2023/03/22 06:18:11;;;;;;;1999.90;999.90;;;;;;;13.82;100.00;95088.41;5083536;28;20169;-58
2023/03/22 06:20:38;;;;;;;1999.90;999.90;;;;;;;14.53;100.00;95079.81;5083889;28;20169;-58
2023/03/22 06:23:04;;;;;;;1999.90;999.90;;;;;;;14.49;100.00;95090.13;5084121;28;20210;-59
2023/03/22 06:25:30;;;;;;;1999.90;999.90;;;;;;;14.59;100.00;95094.56;5083620;28;20165;-58
2023/03/22 06:27:55;;;;;;;1999.90;999.90;;;;;;;15.03;100.00;95096.41;5083472;28;20224;-58
2023/03/22 06:30:20;;;;;;;1999.90;999.90;;;;;;;15.15;100.00;95094.88;5083555;28;20197;-59
2023/03/22 06:32:46;;;;;;;1999.90;999.90;;;;;;;15.68;100.00;95083.75;5083431;28;20173;-58
2023/03/22 06:35:11;;;;;;;1999.90;999.90;;;;;;;15.75;100.00;95091.78;5083657;28;20184;-58
2023/03/22 06:37:36;;;;;;;1999.90;999.90;;;;;;;16.21;100.00;95084.72;5083493;28;20180;-58
2023/03/22 06:40:03;;;;;;;1999.90;999.90;;;;;;;16.58;100.00;95088.53;5083537;28;20184;-59
2023/03/22 06:42:29;;;;;;;1999.90;999.90;;;;;;;16.88;100.00;95090.56;5083541;28;20173;-58
2023/03/22 06:44:56;;;;;;;1999.90;999.90;;;;;;;17.13;100.00;95087.63;5083362;28;20173;-58
2023/03/22 06:47:21;;;;;;;1999.90;999.90;;;;;;;17.43;100.00;95095.16;5084012;28;20173;-59
2023/03/22 06:49:46;;;;;;;1999.90;999.90;;;;;;;17.52;100.00;95093.19;5083254;28;20247;-59
2023/03/22 06:52:12;;;;;;;1999.90;999.90;;;;;;;18.18;100.00;95088.91;5083700;28;20181;-58
2023/03/22 06:54:37;;;;;;;1999.90;999.90;;;;;;;18.93;100.00;95091.50;5083484;28;20189;-58
2023/03/22 06:57:03;;;;;;;1999.90;999.90;;;;;;;19.64;92.25;95091.75;5083775;28;20188;-58
2023/03/22 06:59:31;;;;;;;1999.90;999.90;;;;;;;20.15;86.61;95092.44;5083887;28;20169;-59
2023/03/22 07:01:57;;;;;;;1999.90;999.90;;;;;;;20.18;82.71;95097.00;5082907;28;20169;-58
2023/03/22 07:04:23;;;;;;;1999.90;999.90;;;;;;;20.60;80.80;95099.63;5083826;28;20169;-58
2023/03/22 07:06:49;;;;;;;1999.90;999.90;;;;;;;21.07;76.11;95097.53;5083287;28;20169;-58
2023/03/22 07:09:14;;;;;;;1999.90;999.90;;;;;;;21.64;72.90;95104.28;5083388;28;20177;-59
2023/03/22 07:11:40;;;;;;;1999.90;999.90;;;;;;;21.40;71.45;95105.66;5083193;28;20208;-59
2023/03/22 07:14:05;;;;;;;1999.90;999.90;;;;;;;21.66;69.34;95104.59;5083155;28;20251;-60
2023/03/22 07:16:30;;;;;;;1999.90;999.90;;;;;;;21.99;68.47;95102.34;5083232;28;20193;-58
2023/03/22 07:18:56;;;;;;;1999.90;999.90;;;;;;;22.62;63.73;95092.31;5083342;28;20176;-59
2023/03/22 07:21:21;;;;;;;1999.90;999.90;;;;;;;22.73;62.51;95097.25;5083035;28;20173;-60
2023/03/22 07:23:46;;;;;;;1999.90;999.90;;;;;;;22.37;63.20;95099.28;5082730;28;20176;-58
2023/03/22 07:26:12;;;;;;;1999.90;999.90;;;;;;;22.58;62.10;95099.34;5083111;28;20169;-58
2023/03/22 07:28:40;;;;;;;1999.90;999.90;;;;;;;23.32;58.83;95098.38;5083193;28;20221;-58
2023/03/22 07:31:10;;;;;;;1999.90;999.90;;;;;;;24.02;54.32;95099.47;5086980;28;20204;-58
2023/03/22 07:33:36;;;;;;;1999.90;999.90;;;;;;;24.21;53.80;95106.16;5086422;28;20176;-58
2023/03/22 07:36:01;;;;;;;1999.90;999.90;;;;;;;24.86;50.69;95104.97;5086965;28;20477;-60
2023/03/22 07:38:27;;;;;;;1999.90;999.90;;;;;;;24.80;49.70;95112.59;5086811;28;20200;-58
2023/03/22 07:40:56;;;;;;;1999.90;999.90;;;;;;;25.06;48.49;95108.34;5086612;28;20173;-59
2023/03/22 07:43:22;;;;;;;1999.90;999.90;;;;;;;24.83;48.71;95105.97;5087009;28;20219;-58
2023/03/22 07:45:49;;;;;;;1999.90;999.90;;;;;;;25.02;47.35;95109.88;5086296;28;20240;-61
2023/03/22 07:48:15;;;;;;;1999.90;999.90;;;;;;;24.82;47.63;95118.44;5086507;28;20181;-58
2023/03/22 07:50:40;;;;;;;1999.90;999.90;;;;;;;25.22;48.07;95109.66;5086205;28;20197;-58
2023/03/22 07:53:06;;;;;;;1999.90;999.90;;;;;;;25.34;44.86;95116.81;5086870;28;20169;-57
2023/03/22 07:55:31;;;;;;;1999.90;999.90;;;;;;;25.87;44.93;95113.03;5086149;28;20189;-58
2023/03/22 07:57:57;;;;;;;1999.90;999.90;;;;;;;26.32;43.20;95120.13;5086196;28;20173;-58
2023/03/22 08:00:22;;;;;;;1999.90;999.90;;;;;;;25.91;43.10;95119.91;5086201;28;20169;-60
2023/03/22 08:02:47;;;;;;;1999.90;999.90;;;;;;;25.56;46.87;95111.25;5086773;28;20174;-58
2023/03/22 08:05:13;;;;;;;1999.90;999.90;;;;;;;26.99;42.22;95119.41;5086107;28;20168;-58
2023/03/22 08:07:38;;;;;;;1999.90;999.90;;;;;;;27.50;41.53;95121.44;5086571;28;20219;-58
2023/03/22 08:10:05;;;;;;;1999.90;999.90;;;;;;;27.16;39.83;95120.09;5086298;28;20197;-59
2023/03/22 08:12:31;;;;;;;1999.90;999.90;;;;;;;27.47;40.14;95121.72;5086159;28;20192;-60
2023/03/22 08:14:56;;;;;;;1999.90;999.90;;;;;;;27.75;39.74;95109.00;5086368;28;20165;-59
2023/03/22 08:17:22;;;;;;;1999.90;999.90;;;;;;;27.89;38.82;95107.13;5086081;28;20180;-60
2023/03/22 08:19:48;;;;;;;1999.90;999.90;;;;;;;28.29;38.42;95121.06;5086414;28;20203;-60
2023/03/22 08:22:14;;;;;;;1999.90;999.90;;;;;;;28.00;38.50;95119.03;5086714;28;20169;-58
2023/03/22 08:24:39;;;;;;;1999.90;999.90;;;;;;;27.13;40.19;95103.53;5085894;28;20165;-60
2023/03/22 08:27:05;;;;;;;1999.90;999.90;;;;;;;27.60;38.45;95114.22;5085715;28;20236;-59
2023/03/22 08:29:30;;;;;;;1999.90;999.90;;;;;;;27.61;39.35;95112.94;5085566;28;20219;-57
2023/03/22 08:32:00;;;;;;;1999.90;999.90;;;;;;;26.91;41.36;95109.28;5086027;28;20169;-57
2023/03/22 08:34:26;;;;;;;1999.90;999.90;;;;;;;27.52;39.86;95106.88;5086017;28;20169;-57
2023/03/22 08:36:52;;;;;;;1999.90;999.90;;;;;;;28.02;40.16;95099.63;5085406;28;20196;-57
2023/03/22 08:39:17;;;;;;;1999.90;999.90;;;;;;;27.84;40.70;95099.53;5085470;28;20185;-57
2023/03/22 08:41:43;;;;;;;1999.90;999.90;;;;;;;28.38;38.77;95106.66;5085311;28;20205;-60
2023/03/22 08:44:08;;;;;;;1999.90;999.90;;;;;;;28.04;39.24;95113.88;5085913;28;20173;-59
2023/03/22 08:46:34;;;;;;;1999.90;999.90;;;;;;;27.41;41.74;95110.53;5086086;28;20199;-59
2023/03/22 08:49:01;;;;;;;1999.90;999.90;;;;;;;28.34;39.50;95103.38;5085931;28;20173;-59
2023/03/22 08:51:26;;;;;;;1999.90;999.90;;;;;;;28.36;37.59;95099.28;5084967;28;20201;-59
2023/03/22 08:53:52;;;;;;;1999.90;999.90;;;;;;;28.03;39.56;95095.53;5085223;28;20295;-60
2023/03/22 08:56:19;;;;;;;1999.90;999.90;;;;;;;27.77;39.01;95095.22;5085207;28;20207;-59
2023/03/22 08:58:45;;;;;;;1999.90;999.90;;;;;;;27.98;38.76;95087.88;5085162;28;20169;-59
2023/03/22 09:01:12;;;;;;;1999.90;999.90;;;;;;;28.74;37.79;95090.44;5085071;28;20169;-59
2023/03/22 09:03:37;;;;;;;1999.90;999.90;;;;;;;27.94;38.24;95089.47;5085001;28;20180;-59
2023/03/22 09:06:03;;;;;;;1999.90;999.90;;;;;;;27.20;41.11;95091.78;5085547;28;20173;-61
2023/03/22 09:08:29;;;;;;;1999.90;999.90;;;;;;;27.73;39.89;95083.50;5084953;28;20177;-58
2023/03/22 09:10:55;;;;;;;1999.90;999.90;;;;;;;27.62;40.43;95082.81;5084782;28;20197;-59
2023/03/22 09:13:20;;;;;;;1999.90;999.90;;;;;;;28.60;39.18;95085.25;5084844;28;20183;-58
2023/03/22 09:15:46;;;;;;;1999.90;999.90;;;;;;;28.44;38.00;95091.81;5084551;28;20165;-58
2023/03/22 09:18:11;;;;;;;1999.90;999.90;;;;;;;28.27;38.01;95087.09;5084808;28;20201;-58
2023/03/22 09:20:37;;;;;;;1999.90;999.90;;;;;;;27.38;38.82;95094.72;5084672;28;20204;-58
2023/03/22 09:23:03;;;;;;;1999.90;999.90;;;;;;;27.36;39.56;95088.91;5084630;28;20173;-59
2023/03/22 09:25:28;;;;;;;1999.90;999.90;;;;;;;27.89;40.49;95077.00;5085043;28;20169;-59
2023/03/22 09:27:54;;;;;;;1999.90;999.90;;;;;;;27.24;39.79;95081.81;5084373;28;20225;-58
2023/03/22 09:30:19;;;;;;;1999.90;999.90;;;;;;;28.59;38.81;95066.88;5084897;28;20276;-58
2023/03/22 09:32:45;;;;;;;1999.90;999.90;;;;;;;27.87;36.40;95076.75;5085125;28;20173;-59
2023/03/22 09:35:10;;;;;;;1999.90;999.90;;;;;;;27.43;39.15;95071.47;5084310;28;20237;-59
2023/03/22 09:37:35;;;;;;;1999.90;999.90;;;;;;;27.42;38.38;95069.97;5084305;28;20173;-60
2023/03/22 09:40:01;;;;;;;1999.90;999.90;;;;;;;27.20;39.96;95064.47;5084269;28;20177;-59
2023/03/22 09:42:39;;;;;;;1999.90;999.90;;;;;;;27.68;37.78;95063.91;5084379;28;20215;-59
2023/03/22 09:45:11;;;;;;;1999.90;999.90;;;;;;;27.65;38.22;95059.34;5084778;28;20169;-59
2023/03/22 09:47:41;;;;;;;1999.90;999.90;;;;;;;28.05;36.83;95059.22;5084949;28;20168;-59
2023/03/22 09:50:37;;;;;;;1999.90;999.90;;;;;;;27.71;37.06;95060.81;5084104;28;20201;-59
2023/03/22 09:53:02;;;;;;;1999.90;999.90;;;;;;;27.67;38.39;95062.34;5082494;28;20181;-60
2023/03/22 09:55:38;;;;;;;1999.90;999.90;;;;;;;27.13;38.08;95053.81;5083994;28;20193;-59
2023/03/22 09:58:28;;;;;;;1999.90;999.90;;;;;;;27.73;37.03;95049.03;5084534;28;20211;-59
2023/03/22 10:01:01;;;;;;;1999.90;999.90;;;;;;;28.16;37.62;95047.88;5084481;28;20173;-60
2023/03/22 10:03:49;;;;;;;1999.90;999.90;;;;;;;27.69;37.31;95045.78;5083996;28;20169;-59
2023/03/22 10:06:23;;;;;;;1999.90;999.90;;;;;;;28.40;36.57;95037.94;5083591;28;20171;-59
2023/03/22 10:09:05;;;;;;;1999.90;999.90;;;;;;;28.59;35.79;95038.75;5084057;28;20264;-58
2023/03/22 10:11:45;;;;;;;1999.90;999.90;;;;;;;27.58;37.21;95043.81;5084435;28;20301;-59
2023/03/22 10:14:26;;;;;;;1999.90;999.90;;;;;;;28.25;36.49;95039.09;5083851;28;20165;-60
2023/03/22 10:16:55;;;;;;;1999.90;999.90;;;;;;;27.44;36.82;95033.72;5084266;28;20377;-59
2023/03/22 10:19:30;;;;;;;1999.90;999.90;;;;;;;28.51;36.24;95037.84;5084075;28;20173;-59
2023/03/22 10:22:00;;;;;;;1999.90;999.90;;;;;;;28.83;34.84;95030.25;5084134;28;20240;-59
2023/03/22 10:24:38;;;;;;;1999.90;999.90;;;;;;;28.51;35.79;95032.22;5083747;28;20173;-57
2023/03/22 10:27:14;;;;;;;1999.90;999.90;;;;;;;28.19;35.88;95035.59;5083659;28;20201;-57
2023/03/22 10:29:43;;;;;;;1999.90;999.90;;;;;;;27.62;37.74;95030.25;5084026;28;20169;-57
2023/03/22 10:32:16;;;;;;;1999.90;999.90;;;;;;;28.17;36.42;95021.31;5084125;28;20171;-57
2023/03/22 10:34:42;;;;;;;1999.90;999.90;;;;;;;28.14;35.97;95013.19;5084145;28;20165;-59
2023/03/22 10:37:14;;;;;;;1999.90;999.90;;;;;;;28.10;36.54;95015.53;5083447;28;20165;-59
2023/03/22 10:39:45;;;;;;;1999.90;999.90;;;;;;;28.26;35.40;95017.41;5084200;28;20171;-59
2023/03/22 10:42:14;;;;;;;1999.90;999.90;;;;;;;28.54;34.25;95012.22;5084117;28;20162;-59
2023/03/22 10:44:47;;;;;;;1999.90;999.90;;;;;;;27.87;35.41;95014.97;5083745;28;20180;-59
2023/03/22 10:47:18;;;;;;;1999.90;999.90;;;;;;;28.04;33.97;95007.16;5083516;28;20248;-59
2023/03/22 10:49:51;;;;;;;1999.90;999.90;;;;;;;27.39;35.28;95003.66;5083449;28;20157;-59
2023/03/22 10:52:39;;;;;;;1999.90;999.90;;;;;;;27.66;36.30;95004.69;5084137;28;20165;-59
2023/03/22 10:55:10;;;;;;;1999.90;999.90;;;;;;;27.77;35.61;95002.56;5083922;28;20269;-59
2023/03/22 10:57:35;;;;;;;1999.90;999.90;;;;;;;28.08;34.76;95002.00;5083795;28;20162;-59
2023/03/22 11:00:08;;;;;;;1999.90;999.90;;;;;;;28.03;33.61;95000.03;5083074;28;20173;-58